Time;durP1;ratioP1;P1;durP2;ratioP2;P2;SDS_P1;SDS_P2;PMS_P1;PMS_P2;Temp;Humidity;BMP_temperature;BMP_pressure;BME280_temperature;BME280_humidity;BME280_pressure;Samples;Min_cycle;Max_cycle;Signal;HPM_P1;HPM_P2
2021/05/02 00:01:28;;;;;;;16.90;10.23;;;9.20;99.90;;;;;;4192147;28;20029;-68
2021/05/02 00:03:29;;;;;;;14.85;10.35;;;9.10;99.90;;;;;;4192206;28;20082;-68
2021/05/02 00:05:32;;;;;;;16.63;10.50;;;9.10;99.90;;;;;;4192253;28;20169;-68
2021/05/02 00:07:33;;;;;;;16.15;10.15;;;9.10;99.90;;;;;;4191825;28;20845;-68
2021/05/02 00:09:33;;;;;;;14.18;9.90;;;9.10;99.90;;;;;;4191831;28;20104;-68
2021/05/02 00:11:34;;;;;;;13.32;10.20;;;9.10;99.90;;;;;;4192457;28;20039;-68
2021/05/02 00:13:36;;;;;;;15.68;10.10;;;9.00;99.90;;;;;;4190608;28;20071;-68
2021/05/02 00:15:37;;;;;;;13.10;9.02;;;9.00;99.90;;;;;;4192424;28;20077;-68
2021/05/02 00:17:40;;;;;;;13.23;9.45;;;9.00;99.90;;;;;;4190280;28;20029;-68
2021/05/02 00:19:41;;;;;;;;;;;9.10;99.90;;;;;;4190757;28;20480;-68
2021/05/02 00:21:44;;;;;;;13.30;8.43;;;9.10;99.90;;;;;;4190779;28;20007;-68
2021/05/02 00:23:45;;;;;;;14.45;10.15;;;9.00;99.90;;;;;;4189587;28;20484;-68
2021/05/02 00:25:47;;;;;;;13.98;9.27;;;9.10;99.90;;;;;;4191418;28;20683;-68
2021/05/02 00:27:49;;;;;;;13.00;9.25;;;9.00;99.90;;;;;;4190433;28;20032;-68
2021/05/02 00:29:49;;;;;;;12.32;9.00;;;9.00;99.90;;;;;;4191946;28;20366;-68
2021/05/02 00:31:50;;;;;;;12.32;9.55;;;9.10;99.90;;;;;;4190493;28;20055;-69
2021/05/02 00:33:51;;;;;;;12.73;8.82;;;9.10;99.90;;;;;;4191858;28;20464;-69
2021/05/02 00:35:52;;;;;;;14.93;9.95;;;9.00;99.90;;;;;;4191571;28;20120;-68
2021/05/02 00:37:53;;;;;;;14.65;10.27;;;9.10;99.90;;;;;;4191592;28;20048;-68
2021/05/02 00:39:56;;;;;;;15.18;9.23;;;9.00;99.90;;;;;;4191701;28;20021;-68
2021/05/02 00:42:03;;;;;;;13.10;10.43;;;9.00;99.90;;;;;;4183650;28;20044;-68
2021/05/02 00:44:24;;;;;;;13.43;10.18;;;9.00;99.90;;;;;;4173314;28;20044;-68
2021/05/02 00:46:36;;;;;;;13.55;9.70;;;8.90;99.90;;;;;;4189834;28;20127;-68
2021/05/02 00:49:01;;;;;;;15.18;10.93;;;8.90;99.90;;;;;;4191622;28;20076;-68
2021/05/02 00:51:05;;;;;;;15.13;10.48;;;8.90;99.90;;;;;;4182947;28;20028;-68
2021/05/02 00:53:46;;;;;;;17.45;12.18;;;8.80;99.90;;;;;;4190365;28;20052;-68
2021/05/02 00:55:53;;;;;;;14.48;10.30;;;8.80;99.90;;;;;;4155770;28;20026;-68
2021/05/02 00:58:00;;;;;;;13.48;9.75;;;8.70;99.90;;;;;;4189949;28;20052;-68
2021/05/02 01:00:04;;;;;;;16.23;11.38;;;8.70;99.90;;;;;;4189986;28;20128;-68
2021/05/02 01:02:05;;;;;;;14.80;11.45;;;8.70;99.90;;;;;;4191160;28;20036;-69
2021/05/02 01:04:09;;;;;;;18.73;11.57;;;8.70;99.90;;;;;;4191538;28;20593;-68
2021/05/02 01:06:13;;;;;;;17.35;11.02;;;8.70;99.90;;;;;;4191266;28;20056;-68
2021/05/02 01:08:14;;;;;;;17.90;11.95;;;8.70;99.90;;;;;;4191008;28;20040;-68
2021/05/02 01:10:17;;;;;;;18.88;12.00;;;8.60;99.90;;;;;;4189699;28;20919;-68
2021/05/02 01:12:20;;;;;;;17.65;11.82;;;8.60;99.90;;;;;;4190505;28;20113;-68
2021/05/02 01:14:23;;;;;;;18.13;13.15;;;8.50;99.90;;;;;;4190476;28;20025;-68
2021/05/02 01:16:29;;;;;;;16.92;11.93;;;8.40;99.90;;;;;;4189635;28;20484;-68
2021/05/02 01:18:30;;;;;;;18.85;12.23;;;8.40;99.90;;;;;;4192073;28;20028;-68
2021/05/02 01:20:36;;;;;;;16.77;12.15;;;8.30;99.90;;;;;;4190179;28;20074;-68
2021/05/02 01:22:40;;;;;;;15.95;12.50;;;8.30;99.90;;;;;;4190519;28;20426;-68
2021/05/02 01:24:46;;;;;;;15.68;11.73;;;8.30;99.90;;;;;;4191656;28;20037;-68
2021/05/02 01:26:47;;;;;;;17.63;12.02;;;8.30;99.90;;;;;;4191705;28;20483;-68
2021/05/02 01:28:53;;;;;;;16.33;11.80;;;8.30;99.90;;;;;;4191672;28;20102;-68
2021/05/02 01:30:55;;;;;;;16.17;12.63;;;8.30;99.90;;;;;;4191668;28;20037;-68
2021/05/02 01:32:56;;;;;;;17.42;12.18;;;8.30;99.90;;;;;;4206960;28;20664;-68
2021/05/02 01:34:57;;;;;;;16.58;11.63;;;8.20;99.90;;;;;;4201565;28;20032;-69
2021/05/02 01:36:57;;;;;;;19.60;12.65;;;8.20;99.90;;;;;;4193386;28;20028;-68
2021/05/02 01:39:02;;;;;;;17.58;12.55;;;8.20;99.90;;;;;;4176315;28;20161;-68
2021/05/02 01:41:03;;;;;;;17.65;12.45;;;8.20;99.90;;;;;;4194093;28;20039;-68
2021/05/02 01:43:04;;;;;;;17.15;12.90;;;8.20;99.90;;;;;;4192934;28;20508;-68
2021/05/02 01:45:07;;;;;;;21.00;13.25;;;8.20;99.90;;;;;;4192701;28;20051;-69
2021/05/02 01:47:15;;;;;;;17.15;12.15;;;8.30;99.90;;;;;;4194359;28;20693;-68
2021/05/02 01:49:17;;;;;;;17.95;12.90;;;8.20;99.90;;;;;;4195122;28;20036;-68
2021/05/02 01:51:19;;;;;;;24.63;13.63;;;8.20;99.90;;;;;;4194035;28;20036;-68
2021/05/02 01:53:21;;;;;;;19.10;13.45;;;8.20;99.90;;;;;;4194629;28;20071;-68
2021/05/02 01:55:22;;;;;;;18.45;12.25;;;8.10;99.90;;;;;;4193474;28;20043;-68
2021/05/02 01:57:28;;;;;;;21.47;14.20;;;8.10;99.90;;;;;;4194110;28;20059;-68
2021/05/02 01:59:29;;;;;;;17.90;13.27;;;8.10;99.90;;;;;;4194289;28;20472;-68
2021/05/02 02:01:30;;;;;;;20.63;13.23;;;8.10;99.90;;;;;;4194021;28;20155;-68
2021/05/02 02:03:32;;;;;;;16.67;12.80;;;8.10;99.90;;;;;;4194347;28;20539;-68
2021/05/02 02:05:35;;;;;;;18.25;12.85;;;8.10;99.90;;;;;;4193610;28;20071;-68
2021/05/02 02:07:39;;;;;;;20.23;13.35;;;8.10;99.90;;;;;;4192218;28;20047;-68
2021/05/02 02:09:41;;;;;;;20.38;14.52;;;8.10;99.90;;;;;;4192913;28;20048;-68
2021/05/02 02:11:42;;;;;;;19.35;13.77;;;8.10;99.90;;;;;;4192084;28;20458;-68
2021/05/02 02:13:49;;;;;;;21.50;15.50;;;8.10;99.90;;;;;;4194236;28;20032;-68
2021/05/02 02:15:49;;;;;;;19.42;14.68;;;8.00;99.90;;;;;;4192339;28;20508;-68
2021/05/02 02:17:50;;;;;;;22.85;15.50;;;8.10;99.90;;;;;;4193784;28;20032;-68
2021/05/02 02:19:52;;;;;;;25.08;16.15;;;8.00;99.90;;;;;;4194138;28;20031;-69
2021/05/02 02:21:54;;;;;;;22.05;16.08;;;8.00;99.90;;;;;;4193090;28;20044;-68
2021/05/02 02:24:00;;;;;;;25.75;17.23;;;7.90;99.90;;;;;;4193578;28;20047;-68
2021/05/02 02:26:15;;;;;;;21.40;15.40;;;7.80;99.90;;;;;;4191747;28;20205;-68
2021/05/02 02:28:21;;;;;;;21.73;15.68;;;7.90;99.90;;;;;;4191073;28;20033;-68
2021/05/02 02:30:25;;;;;;;23.02;14.18;;;7.90;99.90;;;;;;4194050;28;20044;-68
2021/05/02 02:32:28;;;;;;;18.35;14.07;;;7.90;99.90;;;;;;4193920;28;20115;-68
2021/05/02 02:34:31;;;;;;;22.38;14.63;;;7.90;99.90;;;;;;4193523;28;20055;-68
2021/05/02 02:36:32;;;;;;;26.08;16.17;;;8.00;99.90;;;;;;4193487;28;20028;-68
2021/05/02 02:38:35;;;;;;;20.23;14.35;;;8.00;99.90;;;;;;4193627;28;20108;-68
2021/05/02 02:40:37;;;;;;;22.60;15.55;;;8.00;99.90;;;;;;4193111;28;20032;-68
2021/05/02 02:42:38;;;;;;;;;;;8.00;99.90;;;;;;4194147;28;20121;-69
2021/05/02 02:44:48;;;;;;;21.67;15.02;;;8.00;99.90;;;;;;4193818;28;20324;-68
2021/05/02 02:46:57;;;;;;;23.33;16.98;;;8.00;99.90;;;;;;4192773;28;20029;-68
2021/05/02 02:48:59;;;;;;;23.30;16.00;;;8.00;99.90;;;;;;4188296;28;20432;-68
2021/05/02 02:51:01;;;;;;;23.67;15.85;;;8.00;99.90;;;;;;4193356;28;20472;-69
2021/05/02 02:53:05;;;;;;;22.98;15.80;;;7.90;99.90;;;;;;4193320;28;20033;-68
2021/05/02 02:55:09;;;;;;;25.75;16.20;;;7.90;99.90;;;;;;4192494;28;20037;-69
2021/05/02 02:57:12;;;;;;;23.38;15.68;;;8.00;99.90;;;;;;4191531;28;20396;-68
2021/05/02 02:59:21;;;;;;;20.00;14.93;;;7.90;99.90;;;;;;4193551;28;20116;-68
2021/05/02 03:01:26;;;;;;;22.08;15.45;;;7.90;99.90;;;;;;4193345;28;20032;-68
2021/05/02 03:03:27;;;;;;;25.90;16.02;;;7.90;99.90;;;;;;4193055;28;20056;-69
2021/05/02 03:05:28;;;;;;;23.33;15.82;;;7.90;99.90;;;;;;4191702;28;20068;-69
2021/05/02 03:07:32;;;;;;;24.05;15.45;;;7.90;99.90;;;;;;4193042;28;20426;-68
2021/05/02 03:09:36;;;;;;;24.45;16.85;;;7.90;99.90;;;;;;4192721;28;20062;-68
2021/05/02 03:11:36;;;;;;;22.00;15.27;;;7.90;99.90;;;;;;4192840;28;20036;-68
2021/05/02 03:13:37;;;;;;;24.52;16.17;;;7.90;99.90;;;;;;4191781;28;20086;-68
2021/05/02 03:15:39;;;;;;;22.17;14.48;;;7.90;99.90;;;;;;4192149;28;20037;-69
2021/05/02 03:17:44;;;;;;;22.05;15.38;;;7.90;99.90;;;;;;4191319;28;20041;-68
2021/05/02 03:19:49;;;;;;;22.08;15.23;;;7.90;99.90;;;;;;4192925;28;20092;-68
2021/05/02 03:21:52;;;;;;;21.83;14.98;;;7.90;99.90;;;;;;4192869;28;20040;-68
2021/05/02 03:23:56;;;;;;;24.80;16.10;;;7.90;99.90;;;;;;4191035;28;20961;-68
2021/05/02 03:26:03;;;;;;;28.95;15.88;;;7.90;99.90;;;;;;4192013;28;20056;-68
2021/05/02 03:28:06;;;;;;;24.33;15.93;;;7.90;99.90;;;;;;4193003;28;20047;-68
2021/05/02 03:30:07;;;;;;;19.65;14.48;;;7.90;99.90;;;;;;4191529;28;20124;-69
2021/05/02 03:32:10;;;;;;;20.27;14.48;;;7.90;99.90;;;;;;4192297;28;20036;-68
2021/05/02 03:34:12;;;;;;;30.25;14.55;;;7.90;99.90;;;;;;4192803;28;20040;-69
2021/05/02 03:36:19;;;;;;;18.35;13.60;;;7.90;99.90;;;;;;4192446;28;20057;-68
2021/05/02 03:38:43;;;;;;;21.45;14.15;;;7.90;99.90;;;;;;4192468;28;20067;-68
2021/05/02 03:40:44;;;;;;;18.48;12.98;;;7.90;99.90;;;;;;4191179;28;20031;-69
2021/05/02 03:42:45;;;;;;;22.77;14.48;;;7.90;99.90;;;;;;4192618;28;20047;-69
2021/05/02 03:44:45;;;;;;;26.50;14.63;;;7.90;99.90;;;;;;4192539;28;20480;-68
2021/05/02 03:46:46;;;;;;;20.75;13.63;;;7.90;99.90;;;;;;4191147;28;20031;-68
2021/05/02 03:48:46;;;;;;;18.50;13.32;;;7.90;99.90;;;;;;4191075;28;20045;-68
2021/05/02 03:50:47;;;;;;;15.98;11.38;;;7.90;99.90;;;;;;4192830;28;20028;-69
2021/05/02 03:52:48;;;;;;;17.58;13.18;;;8.00;99.90;;;;;;4192239;28;20028;-68
2021/05/02 03:54:52;;;;;;;18.02;12.38;;;8.00;99.90;;;;;;4192322;28;20411;-68
2021/05/02 03:56:53;;;;;;;20.83;13.45;;;8.00;99.90;;;;;;4190263;28;20051;-68
2021/05/02 03:59:06;;;;;;;17.10;11.60;;;8.00;99.90;;;;;;4192477;28;20048;-68
2021/05/02 04:01:07;;;;;;;19.20;11.73;;;8.00;99.90;;;;;;4182841;28;20543;-68
2021/05/02 04:03:08;;;;;;;21.38;14.07;;;8.00;99.90;;;;;;4190191;28;20142;-68
2021/05/02 04:05:09;;;;;;;18.50;13.43;;;8.00;99.90;;;;;;4192109;28;20033;-68
2021/05/02 04:07:13;;;;;;;17.95;11.55;;;8.00;99.90;;;;;;4191866;28;20051;-68
2021/05/02 04:09:14;;;;;;;17.67;12.65;;;8.00;99.90;;;;;;4191600;28;20052;-68
2021/05/02 04:11:15;;;;;;;21.38;13.00;;;8.00;99.90;;;;;;4192594;28;20036;-68
2021/05/02 04:13:16;;;;;;;18.35;12.23;;;8.00;99.90;;;;;;4190223;28;20135;-68
2021/05/02 04:15:16;;;;;;;17.98;12.75;;;8.00;99.90;;;;;;4192330;28;20051;-68
2021/05/02 04:17:17;;;;;;;18.75;12.18;;;8.10;99.90;;;;;;4190182;28;20036;-68
2021/05/02 04:19:17;;;;;;;16.60;11.85;;;8.00;99.90;;;;;;4191958;28;20442;-69
2021/05/02 04:21:18;;;;;;;16.58;11.57;;;8.10;99.90;;;;;;4192740;28;20428;-69
2021/05/02 04:23:19;;;;;;;16.80;11.05;;;8.10;99.90;;;;;;4191827;28;20040;-68
2021/05/02 04:25:19;;;;;;;17.20;11.40;;;8.10;99.90;;;;;;4189646;28;20036;-68
2021/05/02 04:27:20;;;;;;;14.73;10.30;;;8.10;99.90;;;;;;4191868;28;20097;-68
2021/05/02 04:29:22;;;;;;;15.35;10.20;;;8.10;99.90;;;;;;4192191;28;20361;-68
2021/05/02 04:31:23;;;;;;;16.05;10.48;;;8.10;99.90;;;;;;4177965;28;20028;-68
2021/05/02 04:33:23;;;;;;;16.88;10.93;;;8.10;99.90;;;;;;4191735;28;20051;-68
2021/05/02 04:35:24;;;;;;;16.17;11.00;;;8.10;99.90;;;;;;4191531;28;20453;-68
2021/05/02 04:37:25;;;;;;;22.15;11.77;;;8.10;99.90;;;;;;4192098;28;20558;-68
2021/05/02 04:39:26;;;;;;;22.30;10.23;;;8.10;99.90;;;;;;4191652;28;20143;-68
2021/05/02 04:41:27;;;;;;;15.03;10.23;;;8.10;99.90;;;;;;4190606;28;20054;-68
2021/05/02 04:43:28;;;;;;;13.35;9.43;;;8.10;99.90;;;;;;4191123;28;20044;-68
2021/05/02 04:45:28;;;;;;;14.57;9.55;;;8.10;99.90;;;;;;4190591;28;20480;-68
2021/05/02 04:47:29;;;;;;;13.77;9.80;;;8.10;99.90;;;;;;4192147;28;20476;-68
2021/05/02 04:49:30;;;;;;;15.68;9.15;;;8.10;99.90;;;;;;4190195;28;20114;-68
2021/05/02 04:51:30;;;;;;;17.40;8.73;;;8.10;99.90;;;;;;4192239;28;20060;-68
2021/05/02 04:53:31;;;;;;;14.25;8.73;;;8.10;99.90;;;;;;4191780;28;20037;-68
2021/05/02 04:55:32;;;;;;;16.42;9.02;;;8.10;99.90;;;;;;4191182;28;20025;-68
2021/05/02 04:57:33;;;;;;;12.00;7.95;;;8.10;99.90;;;;;;4173931;28;20558;-68
2021/05/02 04:59:33;;;;;;;17.20;8.50;;;8.10;99.90;;;;;;4187307;28;20051;-68
2021/05/02 05:01:38;;;;;;;14.18;8.25;;;8.10;99.90;;;;;;4191890;28;20116;-68
2021/05/02 05:03:41;;;;;;;13.57;8.40;;;8.10;99.90;;;;;;4191705;28;20047;-69
2021/05/02 05:05:41;;;;;;;18.05;8.52;;;8.10;99.90;;;;;;4191408;28;20036;-68
2021/05/02 05:07:42;;;;;;;11.23;7.85;;;8.10;99.90;;;;;;4190174;28;20032;-68
2021/05/02 05:09:42;;;;;;;15.98;7.82;;;8.10;99.90;;;;;;4190067;28;20116;-68
2021/05/02 05:11:43;;;;;;;10.50;6.38;;;8.10;99.90;;;;;;4193397;28;20652;-68
2021/05/02 05:13:44;;;;;;;11.48;6.68;;;8.00;99.90;;;;;;4194993;28;20104;-68
2021/05/02 05:15:44;;;;;;;14.25;7.53;;;8.00;99.90;;;;;;4193225;28;20081;-68
2021/05/02 05:17:45;;;;;;;10.30;6.65;;;8.10;99.90;;;;;;4194711;28;20059;-68
2021/05/02 05:19:46;;;;;;;11.05;6.75;;;8.10;99.90;;;;;;4193552;28;20048;-68
2021/05/02 05:21:46;;;;;;;9.32;6.00;;;8.10;99.90;;;;;;4195459;28;20040;-69
2021/05/02 05:23:47;;;;;;;10.38;6.00;;;8.10;99.90;;;;;;4182904;28;20175;-68
2021/05/02 05:25:47;;;;;;;11.25;5.70;;;8.10;99.90;;;;;;4192497;28;20028;-68
2021/05/02 05:27:48;;;;;;;8.63;5.93;;;8.10;99.90;;;;;;4194808;28;20082;-68
2021/05/02 05:29:49;;;;;;;11.07;6.30;;;8.20;99.90;;;;;;4193914;28;20033;-68
2021/05/02 05:31:49;;;;;;;12.98;6.13;;;8.20;99.90;;;;;;4194605;28;20055;-68
2021/05/02 05:33:50;;;;;;;11.88;5.90;;;8.20;99.90;;;;;;4192588;28;21856;-68
2021/05/02 05:35:50;;;;;;;12.57;6.22;;;8.30;99.90;;;;;;4170680;28;20459;-69
2021/05/02 05:37:51;;;;;;;10.15;5.90;;;8.20;99.90;;;;;;4189071;28;20059;-68
2021/05/02 05:39:52;;;;;;;9.48;5.75;;;8.30;99.90;;;;;;4193848;28;20056;-68
2021/05/02 05:41:52;;;;;;;9.90;5.70;;;8.20;99.90;;;;;;4193058;28;20047;-68
2021/05/02 05:43:53;;;;;;;9.13;5.68;;;8.20;99.90;;;;;;4193874;28;20071;-68
2021/05/02 05:45:54;;;;;;;10.00;5.55;;;8.20;99.90;;;;;;4194133;28;20036;-68
2021/05/02 05:47:55;;;;;;;11.88;5.50;;;8.20;99.90;;;;;;4194325;28;20047;-68
2021/05/02 05:49:55;;;;;;;14.18;5.45;;;8.20;99.90;;;;;;4194071;28;20032;-68
2021/05/02 05:51:56;;;;;;;7.80;4.72;;;8.20;99.90;;;;;;4192533;28;20064;-68
2021/05/02 05:53:56;;;;;;;7.38;4.82;;;8.20;99.90;;;;;;4191719;28;20044;-68
2021/05/02 05:55:58;;;;;;;10.75;5.43;;;8.30;99.90;;;;;;4193753;28;20035;-68
2021/05/02 05:57:58;;;;;;;9.57;4.85;;;8.30;99.90;;;;;;4193148;28;20036;-68
2021/05/02 05:59:59;;;;;;;8.80;4.68;;;8.30;99.90;;;;;;4193105;28;20036;-68
2021/05/02 06:01:59;;;;;;;9.27;4.63;;;8.30;99.90;;;;;;4192997;28;20041;-68
2021/05/02 06:04:00;;;;;;;12.18;5.35;;;8.40;99.90;;;;;;4192751;28;20059;-69
2021/05/02 06:06:01;;;;;;;8.43;4.30;;;8.40;99.90;;;;;;4191563;28;20056;-69
2021/05/02 06:08:01;;;;;;;8.60;4.32;;;8.40;99.90;;;;;;4189154;28;20060;-68
2021/05/02 06:10:03;;;;;;;8.00;4.50;;;8.40;99.90;;;;;;4192224;28;20039;-69
2021/05/02 06:12:04;;;;;;;12.85;5.40;;;8.50;99.90;;;;;;4195196;28;20112;-69
2021/05/02 06:14:07;;;;;;;10.77;5.13;;;8.50;99.90;;;;;;4193604;28;20032;-69
2021/05/02 06:16:08;;;;;;;12.32;5.28;;;8.50;99.90;;;;;;4193390;28;20024;-69
2021/05/02 06:18:08;;;;;;;8.93;3.85;;;8.50;99.90;;;;;;4194160;28;20031;-69
2021/05/02 06:20:09;;;;;;;11.38;4.85;;;8.50;99.90;;;;;;4192927;28;20407;-69
2021/05/02 06:22:10;;;;;;;8.18;4.30;;;8.50;99.90;;;;;;4194112;28;20039;-69
2021/05/02 06:24:11;;;;;;;8.68;4.32;;;8.60;99.90;;;;;;4191371;28;20042;-69
2021/05/02 06:26:13;;;;;;;8.95;4.25;;;8.60;99.90;;;;;;4193436;28;20053;-69
2021/05/02 06:28:13;;;;;;;9.20;4.40;;;8.70;99.90;;;;;;4193662;28;20066;-69
2021/05/02 06:30:14;;;;;;;7.10;3.60;;;8.70;99.90;;;;;;4191770;28;20504;-69
2021/05/02 06:32:15;;;;;;;12.10;5.03;;;8.80;99.90;;;;;;4192811;28;20166;-69
2021/05/02 06:34:16;;;;;;;10.50;5.03;;;8.90;99.90;;;;;;4193372;28;20086;-69
2021/05/02 06:36:16;;;;;;;8.57;4.22;;;8.80;99.90;;;;;;4193283;28;20044;-69
2021/05/02 06:38:17;;;;;;;7.90;3.70;;;8.80;99.90;;;;;;4193041;28;20550;-69
2021/05/02 06:40:18;;;;;;;8.32;4.68;;;8.90;99.90;;;;;;4191908;28;20067;-69
2021/05/02 06:42:18;;;;;;;8.38;4.15;;;8.90;99.90;;;;;;4193678;28;20040;-69
2021/05/02 06:44:19;;;;;;;10.00;4.88;;;9.00;99.90;;;;;;4192486;28;20021;-69
2021/05/02 06:46:29;;;;;;;9.98;5.10;;;9.10;99.90;;;;;;4192755;28;20055;-69
2021/05/02 06:48:29;;;;;;;8.60;3.78;;;9.00;99.90;;;;;;4193725;28;20484;-69
2021/05/02 06:50:30;;;;;;;10.52;4.28;;;9.20;99.90;;;;;;4193764;28;20028;-69
2021/05/02 06:52:31;;;;;;;11.50;5.10;;;9.20;99.90;;;;;;4193185;28;20396;-69
2021/05/02 06:54:31;;;;;;;9.65;4.20;;;9.30;99.90;;;;;;4193103;28;20120;-69
2021/05/02 06:56:33;;;;;;;8.18;3.90;;;9.30;99.90;;;;;;4191036;28;20036;-69
2021/05/02 06:58:33;;;;;;;11.50;4.28;;;9.40;99.90;;;;;;4191250;28;20399;-69
2021/05/02 07:00:34;;;;;;;9.30;4.30;;;9.40;99.90;;;;;;4193256;28;20021;-69
2021/05/02 07:02:34;;;;;;;8.52;3.80;;;9.40;99.90;;;;;;4193405;28;20025;-69
2021/05/02 07:04:35;;;;;;;6.40;3.63;;;9.40;99.90;;;;;;4191111;28;20047;-69
2021/05/02 07:06:36;;;;;;;8.50;4.47;;;9.40;99.90;;;;;;4193309;28;20037;-69
2021/05/02 07:08:36;;;;;;;11.75;3.95;;;9.40;99.90;;;;;;4186721;28;20116;-68
2021/05/02 07:10:37;;;;;;;12.30;4.63;;;9.40;99.90;;;;;;4190646;28;20029;-69
2021/05/02 07:12:38;;;;;;;6.70;4.03;;;9.40;99.90;;;;;;4193823;28;20189;-69
2021/05/02 07:14:38;;;;;;;6.47;3.55;;;9.40;99.90;;;;;;4190809;28;20424;-69
2021/05/02 07:16:39;;;;;;;10.93;3.75;;;9.50;99.90;;;;;;4175027;28;20040;-69
2021/05/02 07:18:40;;;;;;;8.70;4.20;;;9.60;99.90;;;;;;4192323;28;20108;-69
2021/05/02 07:20:41;;;;;;;7.70;3.72;;;9.70;99.90;;;;;;4191154;28;20499;-69
2021/05/02 07:22:44;;;;;;;12.38;4.35;;;9.70;99.90;;;;;;4193382;28;20037;-69
2021/05/02 07:24:49;;;;;;;9.15;3.40;;;9.70;99.90;;;;;;4192011;28;20485;-69
2021/05/02 07:26:49;;;;;;;9.52;3.67;;;9.70;99.90;;;;;;4192763;28;20028;-66
2021/05/02 07:28:51;;;;;;;12.13;3.35;;;9.70;99.90;;;;;;4192584;28;20025;-66
2021/05/02 07:30:51;;;;;;;16.63;3.78;;;9.60;99.90;;;;;;4193070;28;20036;-66
2021/05/02 07:32:52;;;;;;;9.52;3.65;;;9.70;99.90;;;;;;4192333;28;20468;-66
2021/05/02 07:34:52;;;;;;;7.53;3.60;;;9.70;99.90;;;;;;4192085;28;20028;-66
2021/05/02 07:36:56;;;;;;;8.30;3.45;;;9.70;99.90;;;;;;4190567;28;20524;-66
2021/05/02 07:38:57;;;;;;;8.50;3.03;;;9.70;99.90;;;;;;4188195;28;20083;-66
2021/05/02 07:40:58;;;;;;;8.02;3.15;;;9.70;99.90;;;;;;4190114;28;20061;-66
2021/05/02 07:42:59;;;;;;;10.70;3.88;;;9.70;99.90;;;;;;4192345;28;20045;-66
2021/05/02 07:44:59;;;;;;;9.70;3.30;;;9.70;99.90;;;;;;4191676;28;20028;-66
2021/05/02 07:47:00;;;;;;;8.88;3.80;;;9.80;99.90;;;;;;4191632;28;20515;-66
2021/05/02 07:49:01;;;;;;;11.80;3.80;;;9.70;99.90;;;;;;4192400;28;20060;-66
2021/05/02 07:51:02;;;;;;;7.05;3.42;;;9.80;99.90;;;;;;4192806;28;20040;-66
2021/05/02 07:53:04;;;;;;;9.20;3.72;;;9.80;99.90;;;;;;4190571;28;20041;-66
2021/05/02 07:55:05;;;;;;;10.02;4.28;;;9.80;99.90;;;;;;4192175;28;20067;-66
2021/05/02 07:57:06;;;;;;;11.40;4.22;;;9.90;99.90;;;;;;4189809;28;20033;-66
2021/05/02 07:59:06;;;;;;;8.73;4.18;;;9.80;99.90;;;;;;4189355;28;20522;-66
2021/05/02 08:01:07;;;;;;;7.18;3.42;;;9.80;99.90;;;;;;4188048;28;20122;-67
2021/05/02 08:03:08;;;;;;;9.30;3.55;;;9.80;99.90;;;;;;4190076;28;20131;-67
2021/05/02 08:05:09;;;;;;;10.88;3.35;;;9.90;99.90;;;;;;4189930;28;20059;-67
2021/05/02 08:07:29;;;;;;;7.85;3.55;;;10.00;99.90;;;;;;4193636;28;20034;-67
2021/05/02 08:09:49;;;;;;;8.30;3.40;;;10.00;99.90;;;;;;4188638;28;20070;-67
2021/05/02 08:11:50;;;;;;;7.03;3.10;;;10.00;99.90;;;;;;4189670;28;20037;-67
2021/05/02 08:13:50;;;;;;;10.20;3.50;;;10.00;99.90;;;;;;4187118;28;20040;-67
2021/05/02 08:15:51;;;;;;;3.30;2.65;;;10.00;99.90;;;;;;4185211;28;20614;-67
2021/05/02 08:17:52;;;;;;;7.13;3.00;;;10.00;99.90;;;;;;4186068;28;20075;-67
2021/05/02 08:19:53;;;;;;;7.00;2.53;;;10.20;99.90;;;;;;4184750;28;20071;-67
2021/05/02 08:21:54;;;;;;;8.18;3.22;;;10.20;99.90;;;;;;4187634;28;20051;-67
2021/05/02 08:23:55;;;;;;;9.32;3.10;;;10.30;99.90;;;;;;4187175;28;21234;-67
2021/05/02 08:25:55;;;;;;;5.00;2.60;;;10.40;99.90;;;;;;4186757;28;20048;-67
2021/05/02 08:27:56;;;;;;;6.57;2.40;;;10.40;99.90;;;;;;4187766;28;20072;-67
2021/05/02 08:29:57;;;;;;;6.70;2.95;;;10.40;99.90;;;;;;4186576;28;20040;-67
2021/05/02 08:31:57;;;;;;;6.03;2.10;;;10.30;99.90;;;;;;4187205;28;20062;-67
2021/05/02 08:33:58;;;;;;;7.20;2.25;;;10.30;99.90;;;;;;4187035;28;20584;-67
2021/05/02 08:35:59;;;;;;;7.35;2.58;;;10.30;99.90;;;;;;4184997;28;20036;-67
2021/05/02 08:38:00;;;;;;;5.28;2.13;;;10.30;99.90;;;;;;4185948;28;20625;-67
2021/05/02 08:40:01;;;;;;;6.63;2.28;;;10.30;99.90;;;;;;4186137;28;20049;-67
2021/05/02 08:42:01;;;;;;;5.57;2.13;;;10.40;99.90;;;;;;4187451;28;20044;-68
2021/05/02 08:44:03;;;;;;;3.72;1.80;;;10.40;99.90;;;;;;4185264;28;20516;-67
2021/05/02 08:46:04;;;;;;;6.00;2.28;;;10.40;99.90;;;;;;4184076;28;20040;-67
2021/05/02 08:48:05;;;;;;;5.30;1.70;;;10.40;99.90;;;;;;4187615;28;20028;-66
2021/05/02 08:50:12;;;;;;;5.10;2.47;;;10.30;99.90;;;;;;4186704;28;20033;-67
2021/05/02 08:52:13;;;;;;;8.82;2.78;;;10.40;99.90;;;;;;4186786;28;20040;-67
2021/05/02 08:54:14;;;;;;;5.18;2.20;;;10.50;99.90;;;;;;4185130;28;21010;-66
2021/05/02 08:56:14;;;;;;;10.18;2.42;;;10.70;99.90;;;;;;4184188;28;20033;-67
2021/05/02 08:58:20;;;;;;;6.45;2.50;;;10.90;99.90;;;;;;4186739;28;20040;-67
2021/05/02 09:00:21;;;;;;;7.28;2.05;;;10.90;99.90;;;;;;4186989;28;20087;-67
2021/05/02 09:02:26;;;;;;;5.32;1.92;;;10.90;99.90;;;;;;4187462;28;20037;-67
2021/05/02 09:04:27;;;;;;;5.20;1.90;;;10.90;99.90;;;;;;4187051;28;20067;-67
2021/05/02 09:06:29;;;;;;;6.07;2.10;;;10.90;99.90;;;;;;4185160;28;20040;-67
2021/05/02 09:08:35;;;;;;;4.07;1.95;;;10.90;99.90;;;;;;4185697;28;20044;-67
2021/05/02 09:10:36;;;;;;;4.28;1.92;;;10.90;99.90;;;;;;4186823;28;20029;-67
2021/05/02 09:12:39;;;;;;;6.63;1.83;;;10.90;99.90;;;;;;4186807;28;20119;-67
2021/05/02 09:14:40;;;;;;;4.82;1.60;;;10.90;99.90;;;;;;4186291;28;20042;-67
2021/05/02 09:16:52;;;;;;;4.35;1.58;;;10.90;99.90;;;;;;4185676;28;20032;-66
2021/05/02 09:19:00;;;;;;;3.42;1.50;;;11.10;99.90;;;;;;4197364;28;20443;-67
2021/05/02 09:21:03;;;;;;;3.95;1.42;;;11.30;99.90;;;;;;4183936;28;20059;-67
2021/05/02 09:23:03;;;;;;;4.32;1.80;;;11.40;99.90;;;;;;4185129;28;20076;-66
2021/05/02 09:25:10;;;;;;;5.25;1.92;;;11.40;99.90;;;;;;4186157;28;20044;-67
2021/05/02 09:27:13;;;;;;;3.35;1.60;;;11.40;99.90;;;;;;4184315;28;20032;-67
2021/05/02 09:29:21;;;;;;;4.97;2.05;;;11.40;99.90;;;;;;4184007;28;20120;-67
2021/05/02 09:31:28;;;;;;;5.32;2.15;;;11.30;99.90;;;;;;4185109;28;20047;-67
2021/05/02 09:33:28;;;;;;;7.45;1.90;;;11.30;99.90;;;;;;4184655;28;20151;-67
2021/05/02 09:35:34;;;;;;;6.55;2.20;;;11.30;99.90;;;;;;4183858;28;20056;-67
2021/05/02 09:37:35;;;;;;;6.72;1.90;;;11.30;99.90;;;;;;4186661;28;20032;-67
2021/05/02 09:39:49;;;;;;;4.03;1.60;;;11.40;99.90;;;;;;4184362;28;20037;-67
2021/05/02 09:42:05;;;;;;;5.53;2.05;;;11.50;99.90;;;;;;4184553;28;20143;-67
2021/05/02 09:44:06;;;;;;;9.15;1.92;;;11.70;99.90;;;;;;4186368;28;20060;-67
2021/05/02 09:46:30;;;;;;;4.32;1.88;;;11.70;99.90;;;;;;4184104;28;20628;-67
2021/05/02 09:48:33;;;;;;;2.75;1.63;;;11.60;99.90;;;;;;4185987;28;20052;-67
2021/05/02 09:50:35;;;;;;;6.00;1.80;;;11.50;99.90;;;;;;4184585;28;20040;-68
2021/05/02 09:52:41;;;;;;;4.07;1.70;;;11.40;99.90;;;;;;4186260;28;20070;-67
2021/05/02 09:54:42;;;;;;;3.08;1.55;;;11.40;99.90;;;;;;4186109;28;20063;-68
2021/05/02 09:56:53;;;;;;;5.68;1.80;;;11.40;99.90;;;;;;4183655;28;20032;-68
2021/05/02 09:58:53;;;;;;;3.92;1.88;;;11.30;99.90;;;;;;4187762;28;20056;-67
2021/05/02 10:00:55;;;;;;;5.97;1.65;;;11.30;99.90;;;;;;4189972;28;20032;-67
2021/05/02 10:02:57;;;;;;;4.78;1.75;;;11.40;99.90;;;;;;4189134;28;20579;-67
2021/05/02 10:05:08;;;;;;;6.10;1.53;;;11.40;99.90;;;;;;4189436;28;20028;-67
2021/05/02 10:07:13;;;;;;;4.45;1.67;;;11.40;99.90;;;;;;4187414;28;20404;-68
2021/05/02 10:09:16;;;;;;;3.58;1.42;;;11.50;99.90;;;;;;4186484;28;20024;-67
2021/05/02 10:11:17;;;;;;;6.70;1.65;;;11.60;99.90;;;;;;4187763;28;20048;-67
2021/05/02 10:13:18;;;;;;;6.57;1.90;;;11.60;99.90;;;;;;4188243;28;20021;-67
2021/05/02 10:15:20;;;;;;;3.88;1.52;;;11.60;99.90;;;;;;4187997;28;20029;-67
2021/05/02 10:17:21;;;;;;;4.88;2.03;;;11.60;99.90;;;;;;4188740;28;20041;-67
2021/05/02 10:19:23;;;;;;;3.00;1.45;;;11.60;99.90;;;;;;4187139;28;20032;-68
2021/05/02 10:21:24;;;;;;;2.22;1.45;;;11.60;99.90;;;;;;4188157;28;20147;-68
2021/05/02 10:23:24;;;;;;;4.25;1.67;;;11.60;99.90;;;;;;4187267;28;20079;-67
2021/05/02 10:25:25;;;;;;;3.63;1.95;;;11.60;99.90;;;;;;4189149;28;20045;-67
2021/05/02 10:27:26;;;;;;;4.25;1.45;;;11.60;99.90;;;;;;4188412;28;20041;-67
2021/05/02 10:29:29;;;;;;;2.67;1.50;;;11.60;99.90;;;;;;4189214;28;20040;-67
2021/05/02 10:31:30;;;;;;;2.15;1.52;;;11.70;99.90;;;;;;4189027;28;20025;-67
2021/05/02 10:33:39;;;;;;;3.33;1.60;;;11.70;99.90;;;;;;4187013;28;20051;-67
2021/05/02 10:35:59;;;;;;;4.45;1.40;;;11.70;99.90;;;;;;4188825;28;20060;-68
2021/05/02 10:37:59;;;;;;;5.40;1.67;;;11.60;99.90;;;;;;4188944;28;20033;-67